sensor_id;sensor_type;location;lat;lon;timestamp;pressure;altitude;pressure_sealevel;temperature;humidity
36354;BME280;22383;51.114;13.666;2023-02-28T00:00:11;67010.31;;;-1.72;100.00
36354;BME280;22383;51.114;13.666;2023-02-28T00:02:40;67014.69;;;-1.63;100.00
36354;BME280;22383;51.114;13.666;2023-02-28T00:05:07;67003.44;;;-1.74;100.00
36354;BME280;22383;51.114;13.666;2023-02-28T00:07:35;67002.91;;;-1.74;100.00
36354;BME280;22383;51.114;13.666;2023-02-28T00:10:06;66998.41;;;-1.78;100.00
36354;BME280;22383;51.114;13.666;2023-02-28T00:12:34;66995.75;;;-1.85;100.00
36354;BME280;22383;51.114;13.666;2023-02-28T00:15:02;66982.84;;;-1.97;100.00
36354;BME280;22383;51.114;13.666;2023-02-28T00:17:31;66987.53;;;-1.91;100.00
36354;BME280;22383;51.114;13.666;2023-02-28T00:19:59;66980.03;;;-2.00;100.00
36354;BME280;22383;51.114;13.666;2023-02-28T00:22:39;66964.53;;;-2.12;100.00
36354;BME280;22383;51.114;13.666;2023-02-28T00:25:07;66958.16;;;-2.20;100.00
36354;BME280;22383;51.114;13.666;2023-02-28T00:27:34;66952.19;;;-2.23;100.00
36354;BME280;22383;51.114;13.666;2023-02-28T00:30:04;66952.00;;;-2.25;100.00
36354;BME280;22383;51.114;13.666;2023-02-28T00:32:32;66905.91;;;-2.25;100.00
36354;BME280;22383;51.114;13.666;2023-02-28T00:35:00;66901.97;;;-2.29;100.00
36354;BME280;22383;51.114;13.666;2023-02-28T00:37:28;66944.16;;;-2.33;100.00
36354;BME280;22383;51.114;13.666;2023-02-28T00:39:55;66930.88;;;-2.42;100.00
36354;BME280;22383;51.114;13.666;2023-02-28T00:42:23;66932.78;;;-2.38;100.00
36354;BME280;22383;51.114;13.666;2023-02-28T00:44:50;66928.66;;;-2.44;100.00
36354;BME280;22383;51.114;13.666;2023-02-28T00:47:17;66921.94;;;-2.51;100.00
36354;BME280;22383;51.114;13.666;2023-02-28T00:49:44;66928.09;;;-2.45;100.00
36354;BME280;22383;51.114;13.666;2023-02-28T00:52:12;66930.88;;;-2.42;100.00
36354;BME280;22383;51.114;13.666;2023-02-28T00:54:39;66933.47;;;-2.42;100.00
36354;BME280;22383;51.114;13.666;2023-02-28T00:57:07;66921.72;;;-2.53;100.00
36354;BME280;22383;51.114;13.666;2023-02-28T00:59:34;66916.31;;;-2.56;100.00
36354;BME280;22383;51.114;13.666;2023-02-28T01:02:01;66917.78;;;-2.57;100.00
36354;BME280;22383;51.114;13.666;2023-02-28T01:04:29;66910.91;;;-2.58;100.00
36354;BME280;22383;51.114;13.666;2023-02-28T01:06:56;66905.66;;;-2.66;100.00
36354;BME280;22383;51.114;13.666;2023-02-28T01:09:23;66897.47;;;-2.71;100.00
36354;BME280;22383;51.114;13.666;2023-02-28T01:11:50;66894.25;;;-2.78;100.00
36354;BME280;22383;51.114;13.666;2023-02-28T01:14:17;66886.03;;;-2.83;100.00
36354;BME280;22383;51.114;13.666;2023-02-28T01:16:45;66882.69;;;-2.87;100.00
36354;BME280;22383;51.114;13.666;2023-02-28T01:19:12;66862.50;;;-3.05;100.00
36354;BME280;22383;51.114;13.666;2023-02-28T01:21:39;66853.53;;;-3.13;100.00
36354;BME280;22383;51.114;13.666;2023-02-28T01:24:06;66867.34;;;-3.03;100.00
36354;BME280;22383;51.114;13.666;2023-02-28T01:26:35;66855.00;;;-3.14;100.00
36354;BME280;22383;51.114;13.666;2023-02-28T01:29:02;66851.63;;;-3.17;100.00
36354;BME280;22383;51.114;13.666;2023-02-28T01:31:29;66871.81;;;-2.99;100.00
36354;BME280;22383;51.114;13.666;2023-02-28T01:33:57;66868.69;;;-2.99;100.00
36354;BME280;22383;51.114;13.666;2023-02-28T01:36:27;66871.81;;;-2.99;100.00
36354;BME280;22383;51.114;13.666;2023-02-28T01:38:55;66877.41;;;-2.94;100.00
36354;BME280;22383;51.114;13.666;2023-02-28T01:41:24;66871.47;;;-2.97;100.00
36354;BME280;22383;51.114;13.666;2023-02-28T01:43:54;66869.44;;;-2.96;100.00
36354;BME280;22383;51.114;13.666;2023-02-28T01:46:22;66868.44;;;-3.02;100.00
36354;BME280;22383;51.114;13.666;2023-02-28T01:48:58;66863.06;;;-3.05;100.00
36354;BME280;22383;51.114;13.666;2023-02-28T01:54:04;66847.94;;;-3.18;100.00
36354;BME280;22383;51.114;13.666;2023-02-28T01:56:33;66842.34;;;-3.24;100.00
36354;BME280;22383;51.114;13.666;2023-02-28T01:59:04;66841.78;;;-3.24;100.00
36354;BME280;22383;51.114;13.666;2023-02-28T02:01:31;66839.94;;;-3.21;100.00
36354;BME280;22383;51.114;13.666;2023-02-28T02:04:01;66845.13;;;-3.21;100.00
36354;BME280;22383;51.114;13.666;2023-02-28T02:06:30;66854.66;;;-3.12;100.00
36354;BME280;22383;51.114;13.666;2023-02-28T02:08:58;66853.75;;;-3.11;100.00
36354;BME280;22383;51.114;13.666;2023-02-28T02:11:25;66855.56;;;-3.14;100.00
36354;BME280;22383;51.114;13.666;2023-02-28T02:13:57;66849.81;;;-3.14;100.00
36354;BME280;22383;51.114;13.666;2023-02-28T02:29:41;66836.53;;;-3.31;100.00
36354;BME280;22383;51.114;13.666;2023-02-28T02:34:56;66848.50;;;-3.18;100.00
36354;BME280;22383;51.114;13.666;2023-02-28T02:45:01;66817.69;;;-3.46;100.00
36354;BME280;22383;51.114;13.666;2023-02-28T02:47:31;66816.34;;;-3.50;100.00
36354;BME280;22383;51.114;13.666;2023-02-28T02:49:59;66817.47;;;-3.49;100.00
36354;BME280;22383;51.114;13.666;2023-02-28T02:52:35;66767.75;;;-3.49;100.00
36354;BME280;22383;51.114;13.666;2023-02-28T02:55:05;66813.75;;;-3.50;100.00
36354;BME280;22383;51.114;13.666;2023-02-28T02:57:40;66789.19;;;-3.34;100.00
36354;BME280;22383;51.114;13.666;2023-02-28T03:00:09;66840.28;;;-3.23;100.00
36354;BME280;22383;51.114;13.666;2023-02-28T03:02:37;66829.66;;;-3.33;100.00
36354;BME280;22383;51.114;13.666;2023-02-28T03:05:13;66786.03;;;-3.35;100.00
36354;BME280;22383;51.114;13.666;2023-02-28T03:07:44;66823.84;;;-3.40;100.00
36354;BME280;22383;51.114;13.666;2023-02-28T03:13:23;66834.84;;;-3.33;100.00
36354;BME280;22383;51.114;13.666;2023-02-28T03:15:58;66833.72;;;-3.34;100.00
36354;BME280;22383;51.114;13.666;2023-02-28T03:18:32;66844.91;;;-3.24;100.00
36354;BME280;22383;51.114;13.666;2023-02-28T03:21:13;66837.28;;;-3.28;100.00
36354;BME280;22383;51.114;13.666;2023-02-28T03:26:19;66829.44;;;-3.35;100.00
36354;BME280;22383;51.114;13.666;2023-02-28T03:28:56;66834.84;;;-3.33;100.00
36354;BME280;22383;51.114;13.666;2023-02-28T03:31:33;66832.56;;;-3.35;100.00
36354;BME280;22383;51.114;13.666;2023-02-28T03:36:34;66804.78;;;-3.58;100.00
36354;BME280;22383;51.114;13.666;2023-02-28T03:39:07;66800.88;;;-3.62;100.00
36354;BME280;22383;51.114;13.666;2023-02-28T03:41:39;66800.88;;;-3.62;100.00
36354;BME280;22383;51.114;13.666;2023-02-28T03:44:12;66791.56;;;-3.68;100.00
36354;BME280;22383;51.114;13.666;2023-02-28T03:46:46;66787.44;;;-3.74;100.00
36354;BME280;22383;51.114;13.666;2023-02-28T03:49:16;66782.72;;;-3.81;100.00
36354;BME280;22383;51.114;13.666;2023-02-28T03:51:45;66727.25;;;-3.89;100.00
36354;BME280;22383;51.114;13.666;2023-02-28T03:54:15;66759.66;;;-3.97;100.00
36354;BME280;22383;51.114;13.666;2023-02-28T03:56:51;66750.13;;;-4.06;100.00
36354;BME280;22383;51.114;13.666;2023-02-28T03:59:28;66751.38;;;-4.09;100.00
36354;BME280;22383;51.114;13.666;2023-02-28T04:01:55;66744.31;;;-4.13;100.00
36354;BME280;22383;51.114;13.666;2023-02-28T04:04:25;66744.31;;;-4.13;100.00
36354;BME280;22383;51.114;13.666;2023-02-28T04:06:52;66737.81;;;-4.17;100.00
36354;BME280;22383;51.114;13.666;2023-02-28T04:09:27;66735.34;;;-4.22;100.00
36354;BME280;22383;51.114;13.666;2023-02-28T04:11:54;66738.94;;;-4.16;100.00
36354;BME280;22383;51.114;13.666;2023-02-28T04:14:24;66739.81;;;-4.18;100.00
36354;BME280;22383;51.114;13.666;2023-02-28T04:16:51;66733.69;;;-4.23;100.00
36354;BME280;22383;51.114;13.666;2023-02-28T04:19:19;66719.69;;;-4.36;100.00
36354;BME280;22383;51.114;13.666;2023-02-28T04:21:47;66717.44;;;-4.38;100.00
36354;BME280;22383;51.114;13.666;2023-02-28T04:24:16;66713.88;;;-4.44;100.00
36354;BME280;22383;51.114;13.666;2023-02-28T04:26:45;66666.47;;;-4.42;100.00
36354;BME280;22383;51.114;13.666;2023-02-28T04:29:13;66710.72;;;-4.44;100.00
36354;BME280;22383;51.114;13.666;2023-02-28T04:31:40;66702.00;;;-4.50;100.00
36354;BME280;22383;51.114;13.666;2023-02-28T04:34:08;66690.00;;;-4.63;100.00
36354;BME280;22383;51.114;13.666;2023-02-28T04:36:35;66677.03;;;-4.70;100.00
36354;BME280;22383;51.114;13.666;2023-02-28T04:39:02;66686.66;;;-4.66;100.00
36354;BME280;22383;51.114;13.666;2023-02-28T04:41:30;66695.41;;;-4.61;100.00
36354;BME280;22383;51.114;13.666;2023-02-28T04:43:58;66688.34;;;-4.65;100.00
36354;BME280;22383;51.114;13.666;2023-02-28T04:46:26;66684.41;;;-4.68;100.00
36354;BME280;22383;51.114;13.666;2023-02-28T04:48:53;66670.09;;;-4.79;100.00
36354;BME280;22383;51.114;13.666;2023-02-28T04:51:21;66669.53;;;-4.80;100.00
36354;BME280;22383;51.114;13.666;2023-02-28T04:53:48;66690.25;;;-4.61;100.00
36354;BME280;22383;51.114;13.666;2023-02-28T04:56:16;66682.75;;;-4.70;100.00
36354;BME280;22383;51.114;13.666;2023-02-28T04:58:43;66676.94;;;-4.78;100.00
36354;BME280;22383;51.114;13.666;2023-02-28T05:01:24;66679.16;;;-4.76;100.00
36354;BME280;22383;51.114;13.666;2023-02-28T05:03:52;66688.69;;;-4.67;100.00
36354;BME280;22383;51.114;13.666;2023-02-28T05:06:20;66703.25;;;-4.53;100.00
36354;BME280;22383;51.114;13.666;2023-02-28T05:08:48;66713.53;;;-4.42;100.00
36354;BME280;22383;51.114;13.666;2023-02-28T05:11:19;66706.25;;;-4.48;100.00
36354;BME280;22383;51.114;13.666;2023-02-28T05:13:47;66702.34;;;-4.52;100.00
36354;BME280;22383;51.114;13.666;2023-02-28T05:16:15;66692.81;;;-4.61;100.00
36354;BME280;22383;51.114;13.666;2023-02-28T05:18:42;66645.22;;;-4.62;100.00
36354;BME280;22383;51.114;13.666;2023-02-28T05:21:29;66698.19;;;-4.58;100.00
36354;BME280;22383;51.114;13.666;2023-02-28T05:23:58;66682.19;;;-4.70;100.00
36354;BME280;22383;51.114;13.666;2023-02-28T05:26:26;66673.44;;;-4.76;100.00
36354;BME280;22383;51.114;13.666;2023-02-28T05:28:53;66663.72;;;-4.87;100.00
36354;BME280;22383;51.114;13.666;2023-02-28T05:31:21;66651.41;;;-4.99;100.00
36354;BME280;22383;51.114;13.666;2023-02-28T05:33:48;66653.44;;;-4.99;100.00
36354;BME280;22383;51.114;13.666;2023-02-28T05:36:15;66654.53;;;-4.98;100.00
36354;BME280;22383;51.114;13.666;2023-02-28T05:38:43;66647.28;;;-5.05;100.00
36354;BME280;22383;51.114;13.666;2023-02-28T05:41:12;66650.63;;;-5.02;100.00
36354;BME280;22383;51.114;13.666;2023-02-28T05:43:39;66637.31;;;-5.07;100.00
36354;BME280;22383;51.114;13.666;2023-02-28T05:46:07;66642.81;;;-5.09;100.00
36354;BME280;22383;51.114;13.666;2023-02-28T05:48:38;66629.25;;;-5.17;100.00
36354;BME280;22383;51.114;13.666;2023-02-28T05:51:06;66629.03;;;-5.19;100.00
36354;BME280;22383;51.114;13.666;2023-02-28T05:53:34;66638.88;;;-5.13;100.00
36354;BME280;22383;51.114;13.666;2023-02-28T05:56:04;66648.63;;;-5.01;100.00
36354;BME280;22383;51.114;13.666;2023-02-28T05:58:33;66653.66;;;-4.97;100.00
36354;BME280;22383;51.114;13.666;2023-02-28T06:03:55;66647.84;;;-5.04;100.00
36354;BME280;22383;51.114;13.666;2023-02-28T06:06:22;66651.63;;;-4.96;100.00
36354;BME280;22383;51.114;13.666;2023-02-28T06:08:49;66664.06;;;-4.89;100.00
36354;BME280;22383;51.114;13.666;2023-02-28T06:11:16;66622.88;;;-4.82;100.00
36354;BME280;22383;51.114;13.666;2023-02-28T06:13:43;66674.34;;;-4.78;100.00
36354;BME280;22383;51.114;13.666;2023-02-28T06:16:10;66690.34;;;-4.65;100.00
36354;BME280;22383;51.114;13.666;2023-02-28T06:18:38;66700.09;;;-4.54;100.00
36354;BME280;22383;51.114;13.666;2023-02-28T06:21:05;66703.44;;;-4.51;100.00
36354;BME280;22383;51.114;13.666;2023-02-28T06:23:32;66701.00;;;-4.56;100.00
36354;BME280;22383;51.114;13.666;2023-02-28T06:25:59;66692.59;;;-4.63;100.00
36354;BME280;22383;51.114;13.666;2023-02-28T06:28:26;66696.75;;;-4.57;100.00
36354;BME280;22383;51.114;13.666;2023-02-28T06:30:53;66665.72;;;-4.45;100.00
36354;BME280;22383;51.114;13.666;2023-02-28T06:33:20;66711.63;;;-4.46;100.00
36354;BME280;22383;51.114;13.666;2023-02-28T06:35:47;66712.75;;;-4.45;100.00
36354;BME280;22383;51.114;13.666;2023-02-28T06:38:16;66706.47;;;-4.46;100.00
36354;BME280;22383;51.114;13.666;2023-02-28T06:40:52;66704.22;;;-4.48;100.00
36354;BME280;22383;51.114;13.666;2023-02-28T06:43:19;66715.00;;;-4.43;100.00
36354;BME280;22383;51.114;13.666;2023-02-28T06:45:46;66709.28;;;-4.43;100.00
36354;BME280;22383;51.114;13.666;2023-02-28T06:48:13;66697.72;;;-4.51;100.00
36354;BME280;22383;51.114;13.666;2023-02-28T06:50:40;66700.88;;;-4.51;100.00
36354;BME280;22383;51.114;13.666;2023-02-28T06:53:07;66708.50;;;-4.46;100.00
36354;BME280;22383;51.114;13.666;2023-02-28T06:55:34;66718.91;;;-4.39;100.00
36354;BME280;22383;51.114;13.666;2023-02-28T06:58:01;66726.97;;;-4.29;100.00
36354;BME280;22383;51.114;13.666;2023-02-28T07:00:27;66688.66;;;-4.24;100.00
36354;BME280;22383;51.114;13.666;2023-02-28T07:02:55;66746.91;;;-4.13;100.00
36354;BME280;22383;51.114;13.666;2023-02-28T07:05:23;66752.16;;;-4.06;100.00
36354;BME280;22383;51.114;13.666;2023-02-28T07:07:52;66756.63;;;-4.02;100.00
36354;BME280;22383;51.114;13.666;2023-02-28T07:10:19;66763.00;;;-3.94;100.00
36354;BME280;22383;51.114;13.666;2023-02-28T07:12:47;66790.59;;;-3.73;100.00
36354;BME280;22383;51.114;13.666;2023-02-28T07:15:14;66789.34;;;-3.70;100.00
36354;BME280;22383;51.114;13.666;2023-02-28T07:17:41;66801.78;;;-3.63;100.00
36354;BME280;22383;51.114;13.666;2023-02-28T07:20:08;66819.91;;;-3.44;100.00
36354;BME280;22383;51.114;13.666;2023-02-28T07:22:35;66824.19;;;-3.43;100.00
36354;BME280;22383;51.114;13.666;2023-02-28T07:25:02;66827.41;;;-3.35;100.00
36354;BME280;22383;51.114;13.666;2023-02-28T07:27:29;66855.22;;;-3.12;100.00
36354;BME280;22383;51.114;13.666;2023-02-28T07:29:55;66886.59;;;-2.83;100.00
36354;BME280;22383;51.114;13.666;2023-02-28T07:32:23;66898.38;;;-2.72;100.00
36354;BME280;22383;51.114;13.666;2023-02-28T07:34:50;66933.47;;;-2.42;100.00
36354;BME280;22383;51.114;13.666;2023-02-28T07:37:17;66931.66;;;-2.39;100.00
36354;BME280;22383;51.114;13.666;2023-02-28T07:39:44;66933.34;;;-2.38;100.00
36354;BME280;22383;51.114;13.666;2023-02-28T07:42:15;66952.78;;;-2.22;100.00
36354;BME280;22383;51.114;13.666;2023-02-28T07:44:43;66974.63;;;-2.02;100.00
36354;BME280;22383;51.114;13.666;2023-02-28T07:47:10;67005.63;;;-1.79;100.00
36354;BME280;22383;51.114;13.666;2023-02-28T07:49:38;67010.91;;;-1.72;100.00
36354;BME280;22383;51.114;13.666;2023-02-28T07:52:05;67008.50;;;-1.69;100.00
36354;BME280;22383;51.114;13.666;2023-02-28T07:54:33;67027.22;;;-1.49;100.00
36354;BME280;22383;51.114;13.666;2023-02-28T07:57:04;67042.19;;;-1.38;100.00
36354;BME280;22383;51.114;13.666;2023-02-28T07:59:32;67047.56;;;-1.36;100.00
36354;BME280;22383;51.114;13.666;2023-02-28T08:01:59;67051.50;;;-1.32;100.00
36354;BME280;22383;51.114;13.666;2023-02-28T08:04:26;67068.91;;;-1.16;100.00
36354;BME280;22383;51.114;13.666;2023-02-28T08:06:53;67088.78;;;-0.96;100.00
36354;BME280;22383;51.114;13.666;2023-02-28T08:09:20;67088.22;;;-0.96;100.00
36354;BME280;22383;51.114;13.666;2023-02-28T08:11:51;67071.38;;;-1.11;100.00
36354;BME280;22383;51.114;13.666;2023-02-28T08:14:18;67104.06;;;-0.86;100.00
36354;BME280;22383;51.114;13.666;2023-02-28T08:16:45;67105.06;;;-0.81;100.00
36354;BME280;22383;51.114;13.666;2023-02-28T08:19:12;67127.88;;;-0.62;100.00
36354;BME280;22383;51.114;13.666;2023-02-28T08:21:39;67140.44;;;-0.48;100.00
36354;BME280;22383;51.114;13.666;2023-02-28T08:24:06;67151.47;;;-0.41;100.00
36354;BME280;22383;51.114;13.666;2023-02-28T08:26:36;67150.91;;;-0.41;100.00
36354;BME280;22383;51.114;13.666;2023-02-28T08:29:03;67154.28;;;-0.38;100.00
36354;BME280;22383;51.114;13.666;2023-02-28T08:31:30;67145.84;;;-0.46;100.00
36354;BME280;22383;51.114;13.666;2023-02-28T08:33:57;67131.66;;;-0.54;100.00
36354;BME280;22383;51.114;13.666;2023-02-28T08:36:26;67107.31;;;-0.79;100.00
36354;BME280;22383;51.114;13.666;2023-02-28T08:38:56;67111.78;;;-0.74;100.00
36354;BME280;22383;51.114;13.666;2023-02-28T08:41:24;67138.19;;;-0.50;100.00
36354;BME280;22383;51.114;13.666;2023-02-28T08:43:51;67172.25;;;-0.22;100.00
36354;BME280;22383;51.114;13.666;2023-02-28T08:46:18;67181.03;;;-0.16;100.00
36354;BME280;22383;51.114;13.666;2023-02-28T08:48:45;67166.84;;;-0.24;100.00
36354;BME280;22383;51.114;13.666;2023-02-28T08:51:13;67168.88;;;-0.25;100.00
36354;BME280;22383;51.114;13.666;2023-02-28T08:53:40;67184.63;;;-0.10;100.00
36354;BME280;22383;51.114;13.666;2023-02-28T08:56:08;67178.84;;;-0.11;100.00
36354;BME280;22383;51.114;13.666;2023-02-28T08:58:36;67156.53;;;-0.36;100.00
36354;BME280;22383;51.114;13.666;2023-02-28T09:03:42;67170.00;;;-0.24;100.00
36354;BME280;22383;51.114;13.666;2023-02-28T09:06:09;67179.56;;;-0.15;100.00
36354;BME280;22383;51.114;13.666;2023-02-28T09:08:36;67206.31;;;0.07;100.00
36354;BME280;22383;51.114;13.666;2023-02-28T09:11:03;67205.06;;;0.11;100.00
36354;BME280;22383;51.114;13.666;2023-02-28T09:13:31;67234.28;;;0.37;100.00
36354;BME280;22383;51.114;13.666;2023-02-28T09:15:59;67223.16;;;0.23;100.00
36354;BME280;22383;51.114;13.666;2023-02-28T09:18:27;67238.56;;;0.39;100.00
36354;BME280;22383;51.114;13.666;2023-02-28T09:20:54;67253.16;;;0.52;100.00
36354;BME280;22383;51.114;13.666;2023-02-28T09:23:21;67252.25;;;0.54;100.00
36354;BME280;22383;51.114;13.666;2023-02-28T09:25:49;67280.16;;;0.77;100.00
36354;BME280;22383;51.114;13.666;2023-02-28T09:28:17;67266.88;;;0.67;100.00
36354;BME280;22383;51.114;13.666;2023-02-28T09:30:45;67279.25;;;0.79;100.00
36354;BME280;22383;51.114;13.666;2023-02-28T09:33:12;67316.94;;;1.13;100.00
36354;BME280;22383;51.114;13.666;2023-02-28T09:35:40;67359.28;;;1.47;100.00
36354;BME280;22383;51.114;13.666;2023-02-28T09:38:07;67351.41;;;1.40;100.00
36354;BME280;22383;51.114;13.666;2023-02-28T09:40:51;67378.81;;;1.69;100.00
36354;BME280;22383;51.114;13.666;2023-02-28T09:43:21;67414.28;;;2.02;100.00
36354;BME280;22383;51.114;13.666;2023-02-28T09:45:50;67463.81;;;2.47;100.00
36354;BME280;22383;51.114;13.666;2023-02-28T09:48:20;67471.72;;;2.54;100.00
36354;BME280;22383;51.114;13.666;2023-02-28T09:50:51;67503.03;;;2.80;100.00
36354;BME280;22383;51.114;13.666;2023-02-28T09:53:29;67431.31;;;2.13;100.00
36354;BME280;22383;51.114;13.666;2023-02-28T09:58:34;67329.88;;;1.25;100.00
36354;BME280;22383;51.114;13.666;2023-02-28T10:01:05;67362.16;;;1.57;100.00
36354;BME280;22383;51.114;13.666;2023-02-28T10:03:42;67328.75;;;1.24;100.00
36354;BME280;22383;51.114;13.666;2023-02-28T10:06:14;67257.31;;;0.59;100.00
36354;BME280;22383;51.114;13.666;2023-02-28T10:08:45;67326.84;;;1.20;100.00
36354;BME280;22383;51.114;13.666;2023-02-28T10:11:17;67370.38;;;1.62;100.00
36354;BME280;22383;51.114;13.666;2023-02-28T10:19:16;67315.25;;;1.11;100.00
36354;BME280;22383;51.114;13.666;2023-02-28T10:21:49;67365.31;;;1.57;100.00
36354;BME280;22383;51.114;13.666;2023-02-28T10:24:32;67338.88;;;1.33;100.00
36354;BME280;22383;51.114;13.666;2023-02-28T10:27:01;67290.31;;;0.86;100.00
36354;BME280;22383;51.114;13.666;2023-02-28T10:29:28;67279.06;;;0.76;100.00
36354;BME280;22383;51.114;13.666;2023-02-28T10:31:58;67357.81;;;1.48;100.00
36354;BME280;22383;51.114;13.666;2023-02-28T10:34:27;67346.91;;;1.36;100.00
36354;BME280;22383;51.114;13.666;2023-02-28T10:36:54;67293.66;;;0.89;100.00
36354;BME280;22383;51.114;13.666;2023-02-28T10:39:35;67346.75;;;1.40;100.00
36354;BME280;22383;51.114;13.666;2023-02-28T10:42:06;67351.03;;;1.42;100.00
36354;BME280;22383;51.114;13.666;2023-02-28T10:44:45;67346.19;;;1.40;100.00
36354;BME280;22383;51.114;13.666;2023-02-28T10:47:16;67343.53;;;1.32;100.00
36354;BME280;22383;51.114;13.666;2023-02-28T10:49:48;67326.84;;;1.20;100.00
36354;BME280;22383;51.114;13.666;2023-02-28T10:52:32;67272.16;;;0.74;100.00
36354;BME280;22383;51.114;13.666;2023-02-28T10:57:44;67240.69;;;0.46;100.00
36354;BME280;22383;51.114;13.666;2023-02-28T11:00:16;67248.13;;;0.48;100.00
36354;BME280;22383;51.114;13.666;2023-02-28T11:02:44;67242.16;;;0.45;100.00
36354;BME280;22383;51.114;13.666;2023-02-28T11:07:54;67303.44;;;1.01;100.00
36354;BME280;22383;51.114;13.666;2023-02-28T11:10:23;67362.66;;;1.50;100.00
36354;BME280;22383;51.114;13.666;2023-02-28T11:12:54;67321.78;;;1.15;100.00
36354;BME280;22383;51.114;13.666;2023-02-28T11:15:28;67319.31;;;1.10;100.00
36354;BME280;22383;51.114;13.666;2023-02-28T11:20:35;67369.06;;;1.58;100.00
36354;BME280;22383;51.114;13.666;2023-02-28T11:23:02;67356.09;;;1.46;100.00
36354;BME280;22383;51.114;13.666;2023-02-28T11:25:35;67368.13;;;1.60;100.00
36354;BME280;22383;51.114;13.666;2023-02-28T11:28:04;67293.31;;;0.91;100.00
36354;BME280;22383;51.114;13.666;2023-02-28T11:30:37;67238.94;;;0.37;100.00
36354;BME280;22383;51.114;13.666;2023-02-28T11:33:25;67207.09;;;0.10;100.00
36354;BME280;22383;51.114;13.666;2023-02-28T11:35:53;67201.47;;;0.05;100.00
36354;BME280;22383;51.114;13.666;2023-02-28T11:38:25;67199.56;;;0.01;100.00
36354;BME280;22383;51.114;13.666;2023-02-28T11:48:57;67218.31;;;0.21;100.00
36354;BME280;22383;51.114;13.666;2023-02-28T11:51:28;67247.56;;;0.47;100.00
36354;BME280;22383;51.114;13.666;2023-02-28T12:04:25;67313.91;;;1.08;100.00
36354;BME280;22383;51.114;13.666;2023-02-28T12:09:40;67251.16;;;0.53;100.00
36354;BME280;22383;51.114;13.666;2023-02-28T12:12:15;67252.06;;;0.51;100.00
36354;BME280;22383;51.114;13.666;2023-02-28T12:14:57;67224.16;;;0.28;100.00
36354;BME280;22383;51.114;13.666;2023-02-28T12:23:10;67306.03;;;1.01;100.00
36354;BME280;22383;51.114;13.666;2023-02-28T12:25:42;67324.03;;;1.17;100.00
36354;BME280;22383;51.114;13.666;2023-02-28T12:28:12;67353.88;;;1.44;100.00
36354;BME280;22383;51.114;13.666;2023-02-28T12:30:44;67374.88;;;1.66;100.00
36354;BME280;22383;51.114;13.666;2023-02-28T12:33:20;67345.41;;;1.37;100.00
36354;BME280;22383;51.114;13.666;2023-02-28T12:35:50;67333.25;;;1.28;100.00
36354;BME280;22383;51.114;13.666;2023-02-28T12:38:19;67337.34;;;1.27;100.00
36354;BME280;22383;51.114;13.666;2023-02-28T12:40:52;67344.13;;;1.40;100.00
36354;BME280;22383;51.114;13.666;2023-02-28T12:43:21;67338.88;;;1.33;100.00
36354;BME280;22383;51.114;13.666;2023-02-28T12:45:56;67347.47;;;1.36;100.00
36354;BME280;22383;51.114;13.666;2023-02-28T12:48:39;67349.94;;;1.41;100.00
36354;BME280;22383;51.114;13.666;2023-02-28T12:51:13;67348.59;;;1.37;100.00
36354;BME280;22383;51.114;13.666;2023-02-28T12:56:36;67350.13;;;1.43;100.00
36354;BME280;22383;51.114;13.666;2023-02-28T12:59:13;67343.38;;;1.37;100.00
36354;BME280;22383;51.114;13.666;2023-02-28T13:02:00;67355.56;;;1.46;100.00
36354;BME280;22383;51.114;13.666;2023-02-28T13:04:32;67359.28;;;1.47;100.00
36354;BME280;22383;51.114;13.666;2023-02-28T13:09:39;67357.81;;;1.48;100.00
36354;BME280;22383;51.114;13.666;2023-02-28T13:12:28;67350.69;;;1.44;100.00
36354;BME280;22383;51.114;13.666;2023-02-28T13:17:34;67347.09;;;1.38;100.00
36354;BME280;22383;51.114;13.666;2023-02-28T13:20:01;67347.09;;;1.38;100.00
36354;BME280;22383;51.114;13.666;2023-02-28T13:25:02;67367.56;;;1.59;100.00
36354;BME280;22383;51.114;13.666;2023-02-28T13:27:33;67385.94;;;1.74;100.00
36354;BME280;22383;51.114;13.666;2023-02-28T13:30:49;67356.88;;;1.49;100.00
36354;BME280;22383;51.114;13.666;2023-02-28T13:32:51;67356.47;;;1.44;100.00
36354;BME280;22383;51.114;13.666;2023-02-28T13:35:37;67320.47;;;1.11;100.00
36354;BME280;22383;51.114;13.666;2023-02-28T13:38:16;67311.44;;;1.03;100.00
36354;BME280;22383;51.114;13.666;2023-02-28T13:40:46;67319.53;;;1.13;100.00
36354;BME280;22383;51.114;13.666;2023-02-28T13:43:13;67342.06;;;1.34;100.00
36354;BME280;22383;51.114;13.666;2023-02-28T13:46:06;67348.00;;;1.37;100.00
36354;BME280;22383;51.114;13.666;2023-02-28T13:48:38;67353.88;;;1.44;100.00
36354;BME280;22383;51.114;13.666;2023-02-28T13:51:27;67354.63;;;1.47;100.00
36354;BME280;22383;51.114;13.666;2023-02-28T13:56:52;67347.09;;;1.38;100.00
36354;BME280;22383;51.114;13.666;2023-02-28T13:59:33;67339.22;;;1.31;100.00
36354;BME280;22383;51.114;13.666;2023-02-28T14:04:59;67333.59;;;1.26;100.00
36354;BME280;22383;51.114;13.666;2023-02-28T14:07:46;67338.13;;;1.30;100.00
36354;BME280;22383;51.114;13.666;2023-02-28T14:12:55;67344.84;;;1.36;100.00
36354;BME280;22383;51.114;13.666;2023-02-28T14:20:40;67358.56;;;1.51;100.00
36354;BME280;22383;51.114;13.666;2023-02-28T14:23:18;67360.41;;;1.48;100.00
36354;BME280;22383;51.114;13.666;2023-02-28T14:26:14;67353.88;;;1.44;100.00
36354;BME280;22383;51.114;13.666;2023-02-28T14:31:22;67354.78;;;1.43;100.00
36354;BME280;22383;51.114;13.666;2023-02-28T14:33:59;67350.13;;;1.43;100.00
36354;BME280;22383;51.114;13.666;2023-02-28T14:36:31;67341.69;;;1.36;100.00
36354;BME280;22383;51.114;13.666;2023-02-28T14:39:07;67341.47;;;1.33;100.00
36354;BME280;22383;51.114;13.666;2023-02-28T14:41:38;67340.56;;;1.35;100.00
36354;BME280;22383;51.114;13.666;2023-02-28T14:44:22;67336.97;;;1.29;100.00
36354;BME280;22383;51.114;13.666;2023-02-28T14:46:55;67319.53;;;1.13;100.00